createdAt,value
2019-03-06T00:00:42.857Z,2.83
2019-03-06T00:01:43.180Z,2.77
2019-03-06T00:02:43.424Z,2.76
2019-03-06T00:03:43.752Z,2.75
2019-03-06T00:04:43.960Z,2.72
2019-03-06T00:05:44.231Z,2.76
2019-03-06T00:06:44.548Z,2.77
2019-03-06T00:07:44.806Z,2.83
2019-03-06T00:08:45.102Z,2.75
2019-03-06T00:09:45.366Z,2.65
2019-03-06T00:10:45.646Z,2.70
2019-03-06T00:11:45.956Z,2.69
2019-03-06T00:12:46.241Z,2.69
2019-03-06T00:13:46.497Z,2.72
2019-03-06T00:14:46.752Z,2.58
2019-03-06T00:15:47.029Z,2.68
2019-03-06T00:16:47.340Z,2.69
2019-03-06T00:17:47.581Z,2.62
2019-03-06T00:18:47.859Z,2.64
2019-03-06T00:19:48.145Z,2.70
2019-03-06T00:20:48.506Z,2.64
2019-03-06T00:21:48.698Z,2.65
2019-03-06T00:22:48.938Z,2.62
2019-03-06T00:23:49.235Z,2.52
2019-03-06T00:24:49.524Z,2.51
2019-03-06T00:25:54.661Z,2.58
2019-03-06T00:26:50.102Z,2.58
2019-03-06T00:27:50.345Z,2.57
2019-03-06T00:28:50.739Z,2.70
2019-03-06T00:30:04.632Z,2.65
2019-03-06T00:30:52.183Z,2.54
2019-03-06T00:31:51.472Z,2.65
2019-03-06T00:32:51.734Z,2.65
2019-03-06T00:33:51.991Z,2.52
2019-03-06T00:34:52.297Z,2.59
2019-03-06T00:35:52.575Z,2.57
2019-03-06T00:36:52.943Z,2.59
2019-03-06T00:37:53.132Z,2.68
2019-03-06T00:38:53.378Z,2.59
2019-03-06T00:39:53.673Z,2.65
2019-03-06T00:40:53.974Z,2.73
2019-03-06T00:41:54.277Z,2.72
2019-03-06T00:42:54.526Z,2.65
2019-03-06T00:43:54.802Z,2.64
2019-03-06T00:44:55.126Z,2.70
2019-03-06T00:45:55.329Z,2.72
2019-03-06T00:46:55.640Z,2.68
2019-03-06T00:47:55.889Z,2.75
2019-03-06T00:48:56.170Z,2.77
2019-03-06T00:49:56.477Z,2.73
2019-03-06T00:50:56.714Z,2.68
2019-03-06T00:51:57.030Z,2.73
2019-03-06T00:52:57.338Z,2.76
2019-03-06T00:53:57.649Z,2.72
2019-03-06T00:54:57.862Z,2.69
2019-03-06T00:55:58.580Z,2.76
2019-03-06T00:56:58.405Z,2.75
2019-03-06T00:57:58.670Z,2.64
2019-03-06T00:58:58.945Z,2.65
2019-03-06T00:59:59.238Z,2.65
2019-03-06T01:00:59.504Z,2.75
2019-03-06T01:01:59.895Z,2.70
2019-03-06T01:03:00.049Z,2.70
2019-03-06T01:04:00.327Z,2.68
2019-03-06T01:05:00.611Z,2.73
2019-03-06T01:06:00.871Z,2.77
2019-03-06T01:07:01.162Z,2.68
2019-03-06T01:08:01.419Z,2.79
2019-03-06T01:09:01.709Z,2.70
2019-03-06T01:10:02.053Z,2.85
2019-03-06T01:11:02.254Z,2.70
2019-03-06T01:12:02.560Z,2.73
2019-03-06T01:13:02.792Z,2.82
2019-03-06T01:14:03.085Z,2.80
2019-03-06T01:15:03.364Z,2.80
2019-03-06T01:16:03.639Z,2.80
2019-03-06T01:17:03.936Z,2.88
2019-03-06T01:18:04.206Z,2.75
2019-03-06T01:19:04.447Z,2.70
2019-03-06T01:20:04.750Z,2.69
2019-03-06T01:21:05.019Z,2.68
2019-03-06T01:22:05.320Z,2.76
2019-03-06T01:23:05.564Z,2.65
2019-03-06T01:24:05.825Z,2.69
2019-03-06T01:25:06.132Z,2.65
2019-03-06T01:26:06.474Z,2.61
2019-03-06T01:27:06.972Z,2.51
2019-03-06T01:28:06.964Z,2.57
2019-03-06T01:29:07.244Z,2.55
2019-03-06T01:30:07.519Z,2.55
2019-03-06T01:31:07.794Z,2.52
2019-03-06T01:32:08.102Z,2.59
2019-03-06T01:33:08.360Z,2.57
2019-03-06T01:34:08.740Z,2.65
2019-03-06T01:35:09.037Z,2.52
2019-03-06T01:36:09.189Z,2.68
2019-03-06T01:37:09.511Z,2.62
2019-03-06T01:38:09.775Z,2.59
2019-03-06T01:39:10.037Z,2.54
2019-03-06T01:40:10.329Z,2.55
2019-03-06T01:41:10.567Z,2.59
2019-03-06T01:42:10.860Z,2.59
2019-03-06T01:43:11.293Z,2.64
2019-03-06T01:44:11.447Z,2.64
2019-03-06T01:45:11.747Z,2.75
2019-03-06T01:46:11.987Z,2.65
2019-03-06T01:47:12.283Z,2.69
2019-03-06T01:48:12.584Z,2.57
2019-03-06T01:49:12.833Z,2.61
2019-03-06T01:50:13.127Z,2.73
2019-03-06T01:51:13.446Z,2.70
2019-03-06T01:52:13.648Z,2.73
2019-03-06T01:53:13.998Z,2.68
2019-03-06T01:54:14.222Z,2.68
2019-03-06T01:55:14.520Z,2.62
2019-03-06T01:56:14.816Z,2.61
2019-03-06T01:57:15.051Z,2.76
2019-03-06T01:58:15.346Z,2.73
2019-03-06T01:59:15.668Z,2.72
2019-03-06T02:00:15.874Z,2.70
2019-03-06T02:01:16.140Z,2.77
2019-03-06T02:02:16.420Z,2.69
2019-03-06T02:03:16.723Z,2.70
2019-03-06T02:04:16.973Z,2.61
2019-03-06T02:05:17.272Z,2.62
2019-03-06T02:06:17.534Z,2.52
2019-03-06T02:07:17.827Z,2.50
2019-03-06T02:08:18.177Z,2.52
2019-03-06T02:09:18.372Z,2.50
2019-03-06T02:10:18.666Z,2.57
2019-03-06T02:11:18.928Z,2.61
2019-03-06T02:12:19.206Z,2.54
2019-03-06T02:13:19.496Z,2.59
2019-03-06T02:14:19.763Z,2.54
2019-03-06T02:15:20.040Z,2.47
2019-03-06T02:16:20.396Z,2.65
2019-03-06T02:17:20.584Z,2.59
2019-03-06T02:18:20.872Z,2.65
2019-03-06T02:19:21.122Z,2.65
2019-03-06T02:20:21.431Z,2.55
2019-03-06T02:21:21.708Z,2.55
2019-03-06T02:22:21.984Z,2.54
2019-03-06T02:23:22.271Z,2.52
2019-03-06T02:24:22.628Z,2.47
2019-03-06T02:25:22.801Z,2.47
2019-03-06T02:26:23.078Z,2.52
2019-03-06T02:27:23.353Z,2.54
2019-03-06T02:28:23.641Z,2.47
2019-03-06T02:29:23.914Z,2.40
2019-03-06T02:30:24.209Z,2.41
2019-03-06T02:31:24.443Z,2.50
2019-03-06T02:32:24.789Z,2.47
2019-03-06T02:33:25.017Z,2.46
2019-03-06T02:34:25.284Z,2.47
2019-03-06T02:35:25.571Z,2.44
2019-03-06T02:36:25.825Z,2.44
2019-03-06T02:37:26.084Z,2.44
2019-03-06T02:38:26.398Z,2.40
2019-03-06T02:39:26.661Z,2.34
2019-03-06T02:40:26.969Z,2.36
2019-03-06T02:41:27.275Z,2.33
2019-03-06T02:42:27.482Z,2.32
2019-03-06T02:43:27.793Z,2.32
2019-03-06T02:44:28.067Z,2.28
2019-03-06T02:45:28.327Z,2.26
2019-03-06T02:46:28.631Z,2.23
2019-03-06T02:47:28.904Z,2.21
2019-03-06T02:48:29.192Z,2.23
2019-03-06T02:49:29.574Z,2.33
2019-03-06T02:50:29.726Z,2.23
2019-03-06T02:51:30.019Z,2.25
2019-03-06T02:52:30.275Z,2.21
2019-03-06T02:53:30.555Z,2.19
2019-03-06T02:54:30.835Z,2.25
2019-03-06T02:55:31.101Z,2.12
2019-03-06T02:56:31.398Z,2.04
2019-03-06T02:57:31.772Z,2.08
2019-03-06T02:58:31.947Z,2.08
2019-03-06T02:59:32.244Z,2.12
2019-03-06T03:00:32.517Z,2.08
2019-03-06T03:01:32.794Z,2.05
2019-03-06T03:02:33.057Z,2.01
2019-03-06T03:03:33.352Z,2.04
2019-03-06T03:04:33.604Z,2.07
2019-03-06T03:05:33.977Z,2.12
2019-03-06T03:06:34.389Z,2.08
2019-03-06T03:07:34.434Z,2.08
2019-03-06T03:08:34.717Z,2.04
2019-03-06T03:09:34.986Z,2.01
2019-03-06T03:10:35.269Z,2.05
2019-03-06T03:11:35.547Z,2.12
2019-03-06T03:12:35.806Z,1.98
2019-03-06T03:13:36.156Z,2.04
2019-03-06T03:14:36.432Z,2.08
2019-03-06T03:15:36.609Z,2.12
2019-03-06T03:16:36.926Z,2.05
2019-03-06T03:17:37.195Z,2.07
2019-03-06T03:18:37.493Z,2.03
2019-03-06T03:19:37.771Z,2.03
2019-03-06T03:20:38.030Z,2.01
2019-03-06T03:21:38.315Z,1.92
2019-03-06T03:22:38.667Z,2.00
2019-03-06T03:23:38.895Z,1.97
2019-03-06T03:24:39.168Z,1.88
2019-03-06T03:25:39.422Z,1.82
2019-03-06T03:26:39.720Z,1.85
2019-03-06T03:27:39.959Z,1.82
2019-03-06T03:28:40.271Z,1.84
2019-03-06T03:29:40.550Z,1.71
2019-03-06T03:30:40.950Z,1.79
2019-03-06T03:31:41.086Z,1.81
2019-03-06T03:32:41.436Z,1.70
2019-03-06T03:33:41.672Z,1.74
2019-03-06T03:34:41.956Z,1.67
2019-03-06T03:35:42.211Z,1.70
2019-03-06T03:36:42.512Z,1.71
2019-03-06T03:37:42.750Z,1.75
2019-03-06T03:38:43.098Z,1.84
2019-03-06T03:39:43.311Z,1.74
2019-03-06T03:40:43.589Z,1.74
2019-03-06T03:41:43.877Z,1.78
2019-03-06T03:42:44.130Z,1.75
2019-03-06T03:43:44.398Z,1.81
2019-03-06T03:44:44.721Z,1.76
2019-03-06T03:45:44.969Z,1.78
2019-03-06T03:46:45.297Z,1.76
2019-03-06T03:47:45.503Z,1.84
2019-03-06T03:48:45.771Z,1.78
2019-03-06T03:49:46.074Z,1.82
2019-03-06T03:50:46.353Z,1.86
2019-03-06T03:51:46.643Z,1.85
2019-03-06T03:52:46.918Z,1.86
2019-03-06T03:53:47.192Z,1.82
2019-03-06T03:54:47.538Z,1.82
2019-03-06T03:55:47.765Z,1.75
2019-03-06T03:56:48.051Z,1.82
2019-03-06T03:57:48.309Z,1.79
2019-03-06T03:58:48.587Z,1.76
2019-03-06T03:59:48.889Z,1.67
2019-03-06T04:00:49.131Z,1.75
2019-03-06T04:01:49.433Z,1.76
2019-03-06T04:02:49.713Z,1.68
2019-03-06T04:03:50.111Z,1.70
2019-03-06T04:04:50.303Z,1.74
2019-03-06T04:05:50.513Z,1.71
2019-03-06T04:06:50.819Z,1.68
2019-03-06T04:07:51.077Z,1.61
2019-03-06T04:08:51.357Z,1.63
2019-03-06T04:09:51.682Z,1.57
2019-03-06T04:10:51.929Z,1.57
2019-03-06T04:11:52.300Z,1.52
2019-03-06T04:12:52.457Z,1.48
2019-03-06T04:13:52.733Z,1.48
2019-03-06T04:14:53.049Z,1.52
2019-03-06T04:15:53.285Z,1.43
2019-03-06T04:16:53.568Z,1.40
2019-03-06T04:17:53.836Z,1.40
2019-03-06T04:18:54.132Z,1.30
2019-03-06T04:19:54.501Z,1.25
2019-03-06T04:20:54.665Z,1.30
2019-03-06T04:21:54.973Z,1.40
2019-03-06T04:22:55.212Z,1.38
2019-03-06T04:23:55.504Z,1.36
2019-03-06T04:24:55.825Z,1.24
2019-03-06T04:25:56.056Z,1.22
2019-03-06T04:26:56.346Z,1.27
2019-03-06T04:27:56.625Z,1.31
2019-03-06T04:28:56.870Z,1.24
2019-03-06T04:29:57.223Z,1.22
2019-03-06T04:30:57.449Z,1.22
2019-03-06T04:31:57.736Z,1.21
2019-03-06T04:32:58.008Z,1.24
2019-03-06T04:33:58.268Z,1.20
2019-03-06T04:34:58.592Z,1.20
2019-03-06T04:35:58.892Z,1.13
2019-03-06T04:36:59.201Z,1.13
2019-03-06T04:37:59.385Z,1.14
2019-03-06T04:38:59.644Z,1.12
2019-03-06T04:40:00.303Z,1.12
2019-03-06T04:41:00.230Z,1.09
2019-03-06T04:42:00.532Z,1.12
2019-03-06T04:43:00.783Z,0.99
2019-03-06T04:44:01.299Z,1.04
2019-03-06T04:45:01.512Z,0.99
2019-03-06T04:46:01.605Z,0.88
2019-03-06T04:47:01.880Z,0.92
2019-03-06T04:48:02.154Z,0.94
2019-03-06T04:49:02.438Z,0.99
2019-03-06T04:50:02.775Z,0.95
2019-03-06T04:51:02.978Z,0.96
2019-03-06T04:52:03.275Z,0.95
2019-03-06T04:53:03.650Z,0.92
2019-03-06T04:54:03.838Z,0.88
2019-03-06T04:55:04.157Z,0.86
2019-03-06T04:56:04.370Z,0.88
2019-03-06T04:57:04.664Z,0.95
2019-03-06T04:58:04.950Z,0.95
2019-03-06T04:59:05.232Z,0.95
2019-03-06T05:00:05.779Z,0.92
2019-03-06T05:01:05.822Z,0.88
2019-03-06T05:02:06.034Z,0.92
2019-03-06T05:03:06.353Z,0.82
2019-03-06T05:04:06.599Z,0.84
2019-03-06T05:05:06.918Z,0.74
2019-03-06T05:06:07.160Z,0.78
2019-03-06T05:07:07.440Z,0.82
2019-03-06T05:08:07.747Z,0.74
2019-03-06T05:09:08.046Z,0.76
2019-03-06T05:10:08.385Z,0.84
2019-03-06T05:11:08.546Z,0.89
2019-03-06T05:12:08.810Z,0.78
2019-03-06T05:13:09.098Z,0.78
2019-03-06T05:14:09.373Z,0.84
2019-03-06T05:15:09.723Z,0.82
2019-03-06T05:16:09.927Z,0.76
2019-03-06T05:17:10.209Z,0.77
2019-03-06T05:18:10.648Z,0.71
2019-03-06T05:19:10.753Z,0.68
2019-03-06T05:20:11.089Z,0.78
2019-03-06T05:21:11.306Z,0.76
2019-03-06T05:22:11.577Z,0.73
2019-03-06T05:23:11.871Z,0.74
2019-03-06T05:24:12.120Z,0.67
2019-03-06T05:25:12.462Z,0.78
2019-03-06T05:26:12.834Z,0.66
2019-03-06T05:27:12.974Z,0.70
2019-03-06T05:28:13.276Z,0.70
2019-03-06T05:29:13.514Z,0.71
2019-03-06T05:30:13.850Z,0.68
2019-03-06T05:31:14.097Z,0.74
2019-03-06T05:32:14.375Z,0.66
2019-03-06T05:33:14.671Z,0.71
2019-03-06T05:34:15.607Z,0.77
2019-03-06T05:35:15.220Z,0.61
2019-03-06T05:36:15.476Z,0.68
2019-03-06T05:37:15.770Z,0.61
2019-03-06T05:38:16.609Z,0.71
2019-03-06T05:39:16.316Z,0.77
2019-03-06T05:40:16.644Z,0.63
2019-03-06T05:41:16.846Z,0.70
2019-03-06T05:42:17.177Z,0.68
2019-03-06T05:43:17.434Z,0.70
2019-03-06T05:44:17.697Z,0.64
2019-03-06T05:45:18.019Z,0.71
2019-03-06T05:46:18.250Z,0.67
2019-03-06T05:47:18.503Z,0.66
2019-03-06T05:48:18.821Z,0.71
2019-03-06T05:49:19.080Z,0.73
2019-03-06T05:50:20.257Z,0.64
2019-03-06T05:51:19.789Z,0.64
2019-03-06T05:52:19.909Z,0.73
2019-03-06T05:53:20.221Z,0.71
2019-03-06T05:54:20.481Z,0.63
2019-03-06T05:55:20.791Z,0.64
2019-03-06T05:56:21.036Z,0.70
2019-03-06T05:57:21.315Z,0.76
2019-03-06T05:58:21.589Z,0.82
2019-03-06T05:59:21.966Z,0.73
2019-03-06T06:00:22.206Z,0.71
2019-03-06T06:01:22.493Z,0.76
2019-03-06T06:02:22.772Z,0.70
2019-03-06T06:03:23.044Z,0.70
2019-03-06T06:04:23.350Z,0.71
2019-03-06T06:05:23.604Z,0.71
2019-03-06T06:06:23.898Z,0.78
2019-03-06T06:07:24.252Z,0.74
2019-03-06T06:08:24.432Z,0.70
2019-03-06T06:09:24.705Z,0.85
2019-03-06T06:10:24.980Z,0.84
2019-03-06T06:11:25.284Z,0.85
2019-03-06T06:12:25.534Z,0.85
2019-03-06T06:13:25.830Z,0.85
2019-03-06T06:14:26.088Z,0.94
2019-03-06T06:15:26.393Z,0.89
2019-03-06T06:16:26.651Z,0.89
2019-03-06T06:17:26.906Z,0.95
2019-03-06T06:18:27.274Z,0.92
2019-03-06T06:19:27.463Z,0.96
2019-03-06T06:20:27.723Z,0.95
2019-03-06T06:21:28.305Z,0.91
2019-03-06T06:22:28.559Z,0.96
2019-03-06T06:23:29.112Z,1.02
2019-03-06T06:24:29.198Z,1.06
2019-03-06T06:25:29.368Z,1.10
2019-03-06T06:26:29.674Z,1.07
2019-03-06T06:27:29.937Z,1.12
2019-03-06T06:28:30.229Z,1.02
2019-03-06T06:29:30.491Z,1.09
2019-03-06T06:30:30.768Z,1.10
2019-03-06T06:31:31.105Z,1.10
2019-03-06T06:32:32.865Z,1.06
2019-03-06T06:33:31.620Z,1.12
2019-03-06T06:34:31.877Z,1.20
2019-03-06T06:35:32.149Z,1.13
2019-03-06T06:36:32.452Z,1.13
2019-03-06T06:37:32.687Z,1.12
2019-03-06T06:38:33.019Z,1.12
2019-03-06T06:39:33.277Z,1.22
2019-03-06T06:40:35.552Z,1.14
2019-03-06T06:41:33.816Z,1.22
2019-03-06T06:42:34.053Z,1.21
2019-03-06T06:43:34.373Z,1.12
2019-03-06T06:44:34.649Z,1.22
2019-03-06T06:45:34.908Z,1.22
2019-03-06T06:46:35.196Z,1.28
2019-03-06T06:47:35.460Z,1.34
2019-03-06T06:48:35.778Z,1.32
2019-03-06T06:49:36.017Z,1.45
2019-03-06T06:50:36.280Z,1.40
2019-03-06T06:51:36.573Z,1.42
2019-03-06T06:52:36.843Z,1.52
2019-03-06T06:53:37.122Z,1.52
2019-03-06T06:54:37.366Z,1.49
2019-03-06T06:55:37.658Z,1.52
2019-03-06T06:56:37.986Z,1.68
2019-03-06T06:57:38.255Z,1.58
2019-03-06T06:58:38.505Z,1.57
2019-03-06T06:59:38.759Z,1.74
2019-03-06T07:00:39.048Z,1.71
2019-03-06T07:01:39.364Z,1.71
2019-03-06T07:02:39.676Z,1.82
2019-03-06T07:03:39.913Z,1.81
2019-03-06T07:04:40.198Z,1.95
2019-03-06T07:05:40.635Z,2.00
2019-03-06T07:06:40.742Z,2.07
2019-03-06T07:07:40.999Z,2.12
2019-03-06T07:08:41.280Z,2.19
2019-03-06T07:09:41.552Z,2.18
2019-03-06T07:10:41.824Z,2.14
2019-03-06T07:11:42.124Z,2.19
2019-03-06T07:12:42.416Z,2.19
2019-03-06T07:13:42.769Z,2.36
2019-03-06T07:14:42.966Z,2.37
2019-03-06T07:15:43.251Z,2.39
2019-03-06T07:16:43.542Z,2.44
2019-03-06T07:17:43.810Z,2.47
2019-03-06T07:18:44.079Z,2.51
2019-03-06T07:19:44.371Z,2.52
2019-03-06T07:20:44.664Z,2.52
2019-03-06T07:21:44.995Z,2.62
2019-03-06T07:22:45.176Z,2.70
2019-03-06T07:23:45.467Z,2.59
2019-03-06T07:24:45.761Z,2.72
2019-03-06T07:25:46.039Z,2.70
2019-03-06T07:26:46.327Z,2.76
2019-03-06T07:27:46.569Z,2.83
2019-03-06T07:28:46.849Z,2.82
2019-03-06T07:29:47.207Z,2.80
2019-03-06T07:30:47.396Z,2.93
2019-03-06T07:31:47.683Z,2.91
2019-03-06T07:32:47.963Z,2.94
2019-03-06T07:33:48.227Z,3.05
2019-03-06T07:34:48.526Z,3.09
2019-03-06T07:35:48.800Z,3.15
2019-03-06T07:36:49.085Z,3.15
2019-03-06T07:37:49.411Z,3.22
2019-03-06T07:38:49.676Z,3.27
2019-03-06T07:39:49.917Z,3.34
2019-03-06T07:40:50.175Z,3.34
2019-03-06T07:41:50.478Z,3.34
2019-03-06T07:42:50.738Z,3.36
2019-03-06T07:43:50.994Z,3.58
2019-03-06T07:44:51.299Z,3.58
2019-03-06T07:45:51.593Z,3.53
2019-03-06T07:46:51.953Z,3.49
2019-03-06T07:47:52.124Z,3.68
2019-03-06T07:48:52.411Z,3.66
2019-03-06T07:49:52.690Z,3.78
2019-03-06T07:50:52.948Z,3.70
2019-03-06T07:51:53.251Z,3.74
2019-03-06T07:52:53.515Z,3.78
2019-03-06T07:53:53.803Z,3.86
2019-03-06T07:54:54.178Z,3.95
2019-03-06T07:55:54.327Z,3.99
2019-03-06T07:56:54.626Z,3.99
2019-03-06T07:57:54.885Z,4.10
2019-03-06T07:58:55.448Z,4.09
2019-03-06T07:59:55.447Z,4.09
2019-03-06T08:00:55.698Z,4.13
2019-03-06T08:01:56.021Z,4.16
2019-03-06T08:02:56.314Z,4.14
2019-03-06T08:03:56.523Z,4.20
2019-03-06T08:04:56.822Z,4.22
2019-03-06T08:05:57.082Z,4.27
2019-03-06T08:06:57.369Z,4.21
2019-03-06T08:07:57.632Z,4.36
2019-03-06T08:08:57.934Z,4.40
2019-03-06T08:09:58.222Z,4.38
2019-03-06T08:10:58.520Z,4.36
2019-03-06T08:11:58.755Z,4.48
2019-03-06T08:12:59.032Z,4.49
2019-03-06T08:13:59.325Z,4.57
2019-03-06T08:14:59.607Z,4.60
2019-03-06T08:15:59.867Z,4.63
2019-03-06T08:17:00.154Z,4.66
2019-03-06T08:18:00.407Z,4.75
2019-03-06T08:19:00.724Z,4.66
2019-03-06T08:20:01.134Z,4.79
2019-03-06T08:21:01.263Z,4.82
2019-03-06T08:22:01.528Z,4.84
2019-03-06T08:23:01.836Z,4.90
2019-03-06T08:24:02.139Z,4.95
2019-03-06T08:25:02.421Z,5.00
2019-03-06T08:26:02.675Z,5.13
2019-03-06T08:27:02.957Z,5.05
2019-03-06T08:28:03.373Z,5.08
2019-03-06T08:29:03.565Z,5.18
2019-03-06T08:30:03.806Z,5.15
2019-03-06T08:31:04.062Z,5.23
2019-03-06T08:32:04.350Z,5.18
2019-03-06T08:33:04.633Z,5.20
2019-03-06T08:34:04.913Z,5.28
2019-03-06T08:35:05.185Z,5.29
2019-03-06T08:36:05.499Z,5.43
2019-03-06T08:37:05.706Z,5.46
2019-03-06T08:38:06.006Z,5.52
2019-03-06T08:39:06.279Z,5.56
2019-03-06T08:40:06.552Z,5.62
2019-03-06T08:41:06.817Z,5.76
2019-03-06T08:42:07.097Z,5.80
2019-03-06T08:43:07.390Z,5.77
2019-03-06T08:44:07.719Z,5.90
2019-03-06T08:45:07.905Z,5.94
2019-03-06T08:46:08.184Z,5.99
2019-03-06T08:47:08.483Z,6.06
2019-03-06T08:48:08.783Z,6.15
2019-03-06T08:49:09.073Z,6.34
2019-03-06T08:50:09.330Z,6.39
2019-03-06T08:51:09.580Z,6.49
2019-03-06T08:52:09.883Z,6.57
2019-03-06T08:53:10.247Z,6.68
2019-03-06T08:54:10.542Z,6.71
2019-03-06T08:55:10.923Z,6.95
2019-03-06T08:56:10.959Z,7.13
2019-03-06T08:57:11.249Z,7.13
2019-03-06T08:58:11.560Z,7.36
2019-03-06T08:59:11.841Z,7.43
2019-03-06T09:00:12.114Z,7.40
2019-03-06T09:01:12.475Z,7.55
2019-03-06T09:02:15.443Z,7.67
2019-03-06T09:03:13.038Z,7.58
2019-03-06T09:04:13.279Z,7.56
2019-03-06T09:05:13.580Z,7.69
2019-03-06T09:06:13.844Z,7.74
2019-03-06T09:07:14.108Z,7.75
2019-03-06T09:08:14.423Z,7.87
2019-03-06T09:09:14.794Z,7.99
2019-03-06T09:10:14.977Z,8.11
2019-03-06T09:11:15.225Z,8.18
2019-03-06T09:12:15.508Z,8.23
2019-03-06T09:13:15.785Z,8.23
2019-03-06T09:14:16.059Z,8.23
2019-03-06T09:15:16.383Z,8.17
2019-03-06T09:16:16.638Z,8.28
2019-03-06T09:17:16.940Z,8.26
2019-03-06T09:18:17.148Z,8.31
2019-03-06T09:19:17.419Z,8.34
2019-03-06T09:20:17.720Z,8.31
2019-03-06T09:21:17.983Z,8.41
2019-03-06T09:22:18.259Z,8.44
2019-03-06T09:23:23.100Z,8.41
2019-03-06T09:24:18.822Z,8.44
2019-03-06T09:25:19.109Z,8.45
2019-03-06T09:26:19.439Z,8.66
2019-03-06T09:27:19.671Z,8.63
2019-03-06T09:28:20.559Z,8.81
2019-03-06T09:29:20.227Z,8.77
2019-03-06T09:30:20.509Z,8.84
2019-03-06T09:31:20.795Z,8.87
2019-03-06T09:32:21.053Z,8.93
2019-03-06T09:33:21.381Z,9.00
2019-03-06T09:34:21.731Z,9.03
2019-03-06T09:35:21.887Z,9.09
2019-03-06T09:36:22.196Z,9.08
2019-03-06T09:37:22.457Z,9.00
2019-03-06T09:38:22.972Z,9.15
2019-03-06T09:39:23.007Z,9.13
2019-03-06T09:40:23.302Z,9.15
2019-03-06T09:41:23.559Z,9.19
2019-03-06T09:42:23.968Z,9.21
2019-03-06T09:43:24.132Z,9.30
2019-03-06T09:44:24.403Z,9.36
2019-03-06T09:45:24.706Z,9.40
2019-03-06T09:46:24.954Z,9.33
2019-03-06T09:47:26.134Z,9.29
2019-03-06T09:48:25.525Z,9.37
2019-03-06T09:49:25.786Z,9.44
2019-03-06T09:50:26.132Z,9.44
2019-03-06T09:51:26.319Z,9.52
2019-03-06T09:52:26.580Z,9.51
2019-03-06T09:53:27.636Z,9.52
2019-03-06T09:54:27.196Z,9.59
2019-03-06T09:55:27.431Z,9.66
2019-03-06T09:56:27.752Z,9.67
2019-03-06T09:57:27.980Z,9.66
2019-03-06T09:58:28.315Z,9.72
2019-03-06T09:59:28.526Z,9.67
2019-03-06T10:00:28.805Z,9.69
2019-03-06T10:01:29.121Z,9.70
2019-03-06T10:02:29.394Z,9.67
2019-03-06T10:03:29.646Z,9.64
2019-03-06T10:04:29.913Z,9.66
2019-03-06T10:05:30.209Z,9.73
2019-03-06T10:06:30.575Z,9.84
2019-03-06T10:07:30.842Z,9.88
2019-03-06T10:08:31.041Z,9.85
2019-03-06T10:09:31.314Z,9.94
2019-03-06T10:10:31.589Z,9.99
2019-03-06T10:11:31.904Z,10.02
2019-03-06T10:12:32.146Z,10.07
2019-03-06T10:13:32.438Z,10.10
2019-03-06T10:14:32.702Z,10.15
2019-03-06T10:15:33.115Z,10.18
2019-03-06T10:16:33.276Z,10.23
2019-03-06T10:17:33.549Z,10.23
2019-03-06T10:18:33.831Z,10.25
2019-03-06T10:19:34.103Z,10.41
2019-03-06T10:20:34.366Z,10.43
2019-03-06T10:21:34.683Z,10.55
2019-03-06T10:22:34.944Z,10.57
2019-03-06T10:23:35.299Z,10.68
2019-03-06T10:24:35.546Z,10.71
2019-03-06T10:25:35.763Z,10.86
2019-03-06T10:26:36.075Z,10.86
2019-03-06T10:27:36.332Z,11.01
2019-03-06T10:28:36.739Z,11.18
2019-03-06T10:29:36.916Z,11.13
2019-03-06T10:30:37.192Z,11.08
2019-03-06T10:31:38.512Z,10.90
2019-03-06T10:32:37.719Z,11.02
2019-03-06T10:33:38.005Z,11.01
2019-03-06T10:34:38.293Z,11.13
2019-03-06T10:35:38.573Z,11.16
2019-03-06T10:36:38.855Z,11.15
2019-03-06T10:37:39.110Z,11.16
2019-03-06T10:38:39.403Z,11.22
2019-03-06T10:39:39.754Z,11.18
2019-03-06T10:40:40.020Z,11.25
2019-03-06T10:41:40.293Z,11.22
2019-03-06T10:42:40.503Z,11.27
2019-03-06T10:43:46.452Z,11.26
2019-03-06T10:44:42.087Z,11.22
2019-03-06T10:45:41.914Z,11.22
2019-03-06T10:46:41.657Z,11.25
2019-03-06T10:47:41.905Z,11.44
2019-03-06T10:48:42.291Z,11.41
2019-03-06T10:49:42.488Z,11.49
2019-03-06T10:50:42.734Z,11.52
2019-03-06T10:51:43.058Z,11.56
2019-03-06T10:52:43.262Z,11.65
2019-03-06T10:53:43.537Z,11.76
2019-03-06T10:55:45.112Z,11.78
2019-03-06T10:56:44.534Z,11.77
2019-03-06T10:57:44.646Z,11.73
2019-03-06T10:58:44.938Z,11.77
2019-03-06T10:59:45.250Z,11.71
2019-03-06T11:00:45.511Z,11.70
2019-03-06T11:01:45.826Z,11.68
2019-03-06T11:02:46.061Z,11.63
2019-03-06T11:03:46.340Z,11.76
2019-03-06T11:04:46.677Z,11.77
2019-03-06T11:05:46.882Z,11.83
2019-03-06T11:06:47.212Z,11.78
2019-03-06T11:07:47.437Z,11.85
2019-03-06T11:08:47.714Z,11.81
2019-03-06T11:09:48.031Z,11.86
2019-03-06T11:10:48.249Z,11.91
2019-03-06T11:11:48.577Z,12.00
2019-03-06T11:12:48.871Z,12.05
2019-03-06T11:13:49.081Z,12.10
2019-03-06T11:14:49.386Z,12.15
2019-03-06T11:15:55.391Z,12.26
2019-03-06T11:16:50.966Z,12.32
2019-03-06T11:17:50.446Z,12.50
2019-03-06T11:18:50.485Z,12.47
2019-03-06T11:19:50.789Z,12.53
2019-03-06T11:20:51.061Z,12.50
2019-03-06T11:21:51.486Z,12.50
2019-03-06T11:22:51.598Z,12.53
2019-03-06T11:23:51.879Z,12.58
2019-03-06T11:24:52.171Z,12.65
2019-03-06T11:25:52.426Z,12.58
2019-03-06T11:26:52.748Z,12.75
2019-03-06T11:27:52.968Z,12.68
2019-03-06T11:28:53.260Z,12.66
2019-03-06T11:29:53.688Z,12.73
2019-03-06T11:30:53.813Z,12.83
2019-03-06T11:31:54.100Z,12.68
2019-03-06T11:32:54.782Z,12.54
2019-03-06T11:33:54.687Z,12.53
2019-03-06T11:34:54.985Z,12.66
2019-03-06T11:35:55.243Z,12.62
2019-03-06T11:36:55.518Z,12.68
2019-03-06T11:37:55.844Z,12.75
2019-03-06T11:38:56.077Z,12.88
2019-03-06T11:39:56.367Z,12.93
2019-03-06T11:40:56.653Z,12.98
2019-03-06T11:41:56.910Z,13.08
2019-03-06T11:42:57.224Z,12.98
2019-03-06T11:43:57.450Z,12.98
2019-03-06T11:44:57.776Z,13.02
2019-03-06T11:45:58.081Z,12.93
2019-03-06T11:46:58.280Z,13.02
2019-03-06T11:47:58.575Z,13.05
2019-03-06T11:48:58.827Z,13.16
2019-03-06T11:49:59.124Z,13.16
2019-03-06T11:50:59.386Z,13.30
2019-03-06T11:51:59.671Z,13.30
2019-03-06T11:53:00.063Z,13.31
2019-03-06T11:54:00.280Z,13.42
2019-03-06T11:55:05.887Z,13.40
2019-03-06T11:56:01.769Z,13.47
2019-03-06T11:57:01.059Z,13.40
2019-03-06T11:58:01.369Z,13.36
2019-03-06T11:59:01.614Z,13.28
2019-03-06T12:00:01.920Z,13.20
2019-03-06T12:01:02.145Z,13.19
2019-03-06T12:02:02.454Z,13.26
2019-03-06T12:03:02.902Z,13.11
2019-03-06T12:04:03.002Z,13.21
2019-03-06T12:05:03.278Z,13.23
2019-03-06T12:06:03.532Z,13.24
2019-03-06T12:07:03.828Z,13.19
2019-03-06T12:08:04.136Z,13.13
2019-03-06T12:09:04.389Z,13.17
2019-03-06T12:10:04.690Z,13.11
2019-03-06T12:11:05.025Z,13.19
2019-03-06T12:12:05.211Z,13.23
2019-03-06T12:13:05.520Z,13.21
2019-03-06T12:14:05.767Z,13.27
2019-03-06T12:15:06.059Z,13.23
2019-03-06T12:16:06.328Z,13.21
2019-03-06T12:17:06.584Z,13.28
2019-03-06T12:18:06.915Z,13.27
2019-03-06T12:19:07.204Z,13.17
2019-03-06T12:20:08.393Z,13.33
2019-03-06T12:21:07.710Z,13.30
2019-03-06T12:22:07.957Z,13.21
2019-03-06T12:23:08.255Z,13.19
2019-03-06T12:24:08.529Z,13.23
2019-03-06T12:25:08.816Z,13.33
2019-03-06T12:26:14.300Z,13.31
2019-03-06T12:27:09.387Z,13.28
2019-03-06T12:28:09.640Z,13.26
2019-03-06T12:29:09.885Z,13.31
2019-03-06T12:30:10.204Z,13.31
2019-03-06T12:31:10.462Z,13.31
2019-03-06T12:32:10.780Z,13.36
2019-03-06T12:33:11.045Z,13.24
2019-03-06T12:34:11.299Z,13.31
2019-03-06T12:35:11.605Z,13.37
2019-03-06T12:36:11.931Z,13.31
2019-03-06T12:37:12.136Z,13.31
2019-03-06T12:38:12.462Z,13.37
2019-03-06T12:39:12.698Z,13.27
2019-03-06T12:40:14.714Z,13.23
2019-03-06T12:41:13.242Z,13.30
2019-03-06T12:42:14.691Z,13.30
2019-03-06T12:43:13.861Z,13.45
2019-03-06T12:44:14.215Z,13.47
2019-03-06T12:45:14.431Z,13.39
2019-03-06T12:46:22.309Z,13.42
2019-03-06T12:47:15.922Z,13.42
2019-03-06T12:48:15.246Z,13.47
2019-03-06T12:49:15.472Z,13.57
2019-03-06T12:50:15.759Z,13.67
2019-03-06T12:51:16.042Z,13.80
2019-03-06T12:52:16.404Z,13.70
2019-03-06T12:53:16.646Z,13.78
2019-03-06T12:54:16.860Z,13.87
2019-03-06T12:55:17.159Z,13.93
2019-03-06T12:56:18.025Z,13.86
2019-03-06T12:57:17.950Z,13.85
2019-03-06T12:58:18.281Z,13.86
2019-03-06T12:59:18.511Z,14.00
2019-03-06T13:00:18.878Z,13.98
2019-03-06T13:01:19.131Z,13.94
2019-03-06T13:02:19.327Z,13.93
2019-03-06T13:03:19.630Z,13.98
2019-03-06T13:04:20.617Z,14.03
2019-03-06T13:05:20.185Z,13.95
2019-03-06T13:06:24.631Z,14.07
2019-03-06T13:07:20.741Z,14.07
2019-03-06T13:08:21.051Z,14.13
2019-03-06T13:09:21.332Z,13.95
2019-03-06T13:10:21.574Z,13.83
2019-03-06T13:11:22.804Z,13.86
2019-03-06T13:12:22.127Z,13.83
2019-03-06T13:13:22.423Z,13.79
2019-03-06T13:14:22.682Z,13.91
2019-03-06T13:15:22.958Z,13.91
2019-03-06T13:16:23.263Z,13.87
2019-03-06T13:17:23.615Z,13.83